createdAt,value
2023-06-11T14:17:25.357Z,24.28
2023-06-11T14:18:26.293Z,24.28
2023-06-11T14:19:26.216Z,24.28
2023-06-11T14:20:26.872Z,24.25
2023-06-11T14:21:26.184Z,24.23
2023-06-11T14:22:26.113Z,24.21
2023-06-11T14:23:26.061Z,24.21
2023-06-11T14:24:26.202Z,24.19
2023-06-11T14:25:25.975Z,24.18
2023-06-11T14:26:25.956Z,24.16
2023-06-11T14:27:25.892Z,24.13
2023-06-11T14:28:25.834Z,24.15
2023-06-11T14:29:25.772Z,24.11
2023-06-11T14:30:26.377Z,24.10
2023-06-11T14:31:25.659Z,24.10
2023-06-11T14:32:25.722Z,24.08
2023-06-11T14:33:25.553Z,24.08
2023-06-11T14:34:25.444Z,24.04
2023-06-11T14:35:25.386Z,24.06
2023-06-11T14:36:25.382Z,24.06
2023-06-11T14:37:25.232Z,24.06
2023-06-11T14:38:25.203Z,24.04
2023-06-11T14:39:25.120Z,24.06
2023-06-11T14:40:25.033Z,24.04
2023-06-11T14:41:24.958Z,24.04
2023-06-11T14:42:24.925Z,24.04
2023-06-11T14:43:24.843Z,24.06
2023-06-11T14:44:24.781Z,24.06
2023-06-11T14:45:24.705Z,24.06
2023-06-11T14:46:24.675Z,24.07
2023-06-11T14:47:24.629Z,24.06
2023-06-11T14:48:24.526Z,24.07
2023-06-11T14:49:24.435Z,24.07
2023-06-11T14:50:24.368Z,24.06
2023-06-11T14:51:24.242Z,24.06
2023-06-11T14:52:24.260Z,24.07
2023-06-11T14:53:24.171Z,24.06
2023-06-11T14:54:24.104Z,24.08
2023-06-11T14:55:24.018Z,24.08
2023-06-11T14:56:23.960Z,24.08
2023-06-11T14:57:26.116Z,24.08
2023-06-11T14:58:23.833Z,24.10
2023-06-11T14:59:23.734Z,24.08
2023-06-11T15:00:23.726Z,24.08
2023-06-11T15:01:23.691Z,24.10
2023-06-11T15:02:23.537Z,24.08
2023-06-11T15:03:23.544Z,24.10
2023-06-11T15:04:23.471Z,24.10
2023-06-11T15:05:23.333Z,24.10
2023-06-11T15:06:23.312Z,24.11
2023-06-11T15:07:33.745Z,24.10
2023-06-11T15:08:23.133Z,24.11
2023-06-11T15:09:23.067Z,24.11
2023-06-11T15:10:22.994Z,24.11
2023-06-11T15:11:22.920Z,24.13
2023-06-11T15:12:22.916Z,24.13
2023-06-11T15:13:22.794Z,24.15
2023-06-11T15:14:22.722Z,24.16
2023-06-11T15:15:22.719Z,24.16
2023-06-11T15:16:22.614Z,24.16
2023-06-11T15:17:22.567Z,24.16
2023-06-11T15:18:22.518Z,24.16
2023-06-11T15:19:22.426Z,24.18
2023-06-11T15:20:22.332Z,24.18
2023-06-11T15:21:22.268Z,24.16
2023-06-11T15:22:22.201Z,24.16
2023-06-11T15:23:22.183Z,24.18
2023-06-11T15:24:22.248Z,24.18
2023-06-11T15:25:22.008Z,24.19
2023-06-11T15:26:21.930Z,24.19
